createdAt,value
2019-01-21T00:00:44.718Z,-1.6
2019-01-21T00:01:53.638Z,-1.6
2019-01-21T00:03:02.742Z,-1.6
2019-01-21T00:04:11.893Z,-1.6
2019-01-21T00:05:21.196Z,-1.6
2019-01-21T00:06:30.046Z,-1.7
2019-01-21T00:07:40.687Z,-1.7
2019-01-21T00:08:49.776Z,-1.7
2019-01-21T00:09:58.907Z,-1.7
2019-01-21T00:11:07.969Z,-1.7
2019-01-21T00:12:17.092Z,-1.7
2019-01-21T00:13:26.194Z,-1.6
2019-01-21T00:14:35.315Z,-1.6
2019-01-21T00:15:44.499Z,-1.6
2019-01-21T00:16:53.505Z,-1.7
2019-01-21T00:18:02.619Z,-1.7
2019-01-21T00:19:11.821Z,-1.7
2019-01-21T00:20:20.947Z,-1.6
2019-01-21T00:21:30.046Z,-1.6
2019-01-21T00:22:39.057Z,-1.5
2019-01-21T00:23:48.178Z,-1.5
2019-01-21T00:24:57.275Z,-1.5
2019-01-21T00:26:06.383Z,-1.6
2019-01-21T00:27:15.499Z,-1.6
2019-01-21T00:28:24.609Z,-1.6
2019-01-21T00:29:33.774Z,-1.7
2019-01-21T00:30:42.841Z,-1.9
2019-01-21T00:31:51.965Z,-1.7
2019-01-21T00:33:01.059Z,-1.7
2019-01-21T00:34:10.182Z,-1.7
2019-01-21T00:35:19.283Z,-1.7
2019-01-21T00:36:28.397Z,-1.7
2019-01-21T00:37:37.511Z,-1.7
2019-01-21T00:38:46.667Z,-1.7
2019-01-21T00:39:55.760Z,-1.7
2019-01-21T00:41:04.857Z,-1.6
2019-01-21T00:42:13.969Z,-1.7
2019-01-21T00:43:23.073Z,-1.7
2019-01-21T00:44:32.188Z,-1.7
2019-01-21T00:45:41.370Z,-1.7
2019-01-21T00:46:50.480Z,-1.7
2019-01-21T00:47:59.529Z,-1.7
2019-01-21T00:49:08.770Z,-1.7
2019-01-21T00:50:17.773Z,-1.8
2019-01-21T00:51:26.913Z,-1.9
2019-01-21T00:52:36.047Z,-1.9
2019-01-21T00:53:45.071Z,-1.9
2019-01-21T00:54:54.178Z,-1.8
2019-01-21T00:56:03.295Z,-1.7
2019-01-21T00:57:12.396Z,-1.8
2019-01-21T00:58:21.503Z,-1.8
2019-01-21T00:59:30.611Z,-1.9
2019-01-21T01:00:39.783Z,-1.9
2019-01-21T01:01:48.912Z,-1.8
2019-01-21T01:02:57.930Z,-1.8
2019-01-21T01:04:07.050Z,-1.8
2019-01-21T01:05:16.177Z,-1.7
2019-01-21T01:06:25.237Z,-1.7
2019-01-21T01:07:34.359Z,-1.7
2019-01-21T01:08:43.464Z,-1.7
2019-01-21T01:09:52.669Z,-1.7
2019-01-21T01:11:01.702Z,-1.7
2019-01-21T01:12:10.877Z,-1.8
2019-01-21T01:13:19.883Z,-1.8
2019-01-21T01:14:28.988Z,-1.8
2019-01-21T01:15:38.095Z,-1.8
2019-01-21T01:16:47.206Z,-1.9
2019-01-21T01:17:56.309Z,-1.9
2019-01-21T01:19:05.417Z,-1.9
2019-01-21T01:20:14.526Z,-1.9
2019-01-21T01:21:23.630Z,-1.8
2019-01-21T01:22:32.736Z,-1.9
2019-01-21T01:23:41.866Z,-1.8
2019-01-21T01:24:50.952Z,-2
2019-01-21T01:26:00.065Z,-1.9
2019-01-21T01:27:09.167Z,-2
2019-01-21T01:28:18.275Z,-2
2019-01-21T01:29:27.417Z,-1.9
2019-01-21T01:30:36.490Z,-1.9
2019-01-21T01:31:45.608Z,-1.8
2019-01-21T01:32:54.708Z,-1.8
2019-01-21T01:34:03.823Z,-1.7
2019-01-21T01:35:12.918Z,-1.8
2019-01-21T01:36:22.032Z,-1.8
2019-01-21T01:37:31.464Z,-1.7
2019-01-21T01:38:40.267Z,-1.8
2019-01-21T01:39:49.351Z,-1.9
2019-01-21T01:40:58.472Z,-1.9
2019-01-21T01:42:07.567Z,-1.8
2019-01-21T01:43:16.682Z,-1.9
2019-01-21T01:44:25.817Z,-1.9
2019-01-21T01:45:34.907Z,-1.9
2019-01-21T01:46:44.012Z,-1.9
2019-01-21T01:47:53.117Z,-1.8
2019-01-21T01:49:02.216Z,-1.9
2019-01-21T01:50:11.324Z,-1.9
2019-01-21T01:51:20.428Z,-1.9
2019-01-21T01:52:29.525Z,-1.9
2019-01-21T01:53:38.820Z,-1.9
2019-01-21T01:54:47.736Z,-1.8
2019-01-21T01:55:56.841Z,-1.8
2019-01-21T01:57:05.962Z,-1.8
2019-01-21T01:58:15.087Z,-1.8
2019-01-21T01:59:24.168Z,-1.9
2019-01-21T02:00:33.284Z,-2
2019-01-21T02:01:42.389Z,-1.9
2019-01-21T02:02:51.589Z,-1.9
2019-01-21T02:04:00.577Z,-1.8
2019-01-21T02:05:09.859Z,-1.9
2019-01-21T02:06:18.787Z,-1.9
2019-01-21T02:07:27.927Z,-1.9
2019-01-21T02:08:37.004Z,-2
2019-01-21T02:09:46.186Z,-2.1
2019-01-21T02:10:55.292Z,-2.1
2019-01-21T02:12:04.311Z,-2
2019-01-21T02:13:13.418Z,-2
2019-01-21T02:14:22.520Z,-2
2019-01-21T02:15:31.613Z,-2
2019-01-21T02:16:40.747Z,-1.9
2019-01-21T02:17:52.106Z,-1.9
2019-01-21T02:18:59.007Z,-1.9
2019-01-21T02:20:08.119Z,-1.9
2019-01-21T02:21:17.159Z,-1.9
2019-01-21T02:22:26.242Z,-1.9
2019-01-21T02:23:35.359Z,-1.9
2019-01-21T02:24:44.453Z,-1.9
2019-01-21T02:25:53.563Z,-1.9
2019-01-21T02:27:02.670Z,-1.9
2019-01-21T02:28:11.777Z,-1.8
2019-01-21T02:29:20.873Z,-1.8
2019-01-21T02:30:30.166Z,-1.9
2019-01-21T02:31:39.102Z,-2
2019-01-21T02:32:48.207Z,-2
2019-01-21T02:33:57.293Z,-2
2019-01-21T02:35:06.442Z,-2
2019-01-21T02:36:15.500Z,-1.9
2019-01-21T02:37:24.609Z,-1.9
2019-01-21T02:38:33.707Z,-2
2019-01-21T02:39:42.828Z,-2
2019-01-21T02:40:51.940Z,-2
2019-01-21T02:42:01.019Z,-2.1
2019-01-21T02:43:10.182Z,-2.1
2019-01-21T02:44:19.243Z,-2.1
2019-01-21T02:45:28.342Z,-2.2
2019-01-21T02:46:37.451Z,-2.2
2019-01-21T02:47:46.550Z,-2.2
2019-01-21T02:48:55.670Z,-2.1
2019-01-21T02:50:04.754Z,-2.1
2019-01-21T02:51:13.867Z,-2.1
2019-01-21T02:52:22.963Z,-2.1
2019-01-21T02:53:32.315Z,-2.1
2019-01-21T02:54:41.206Z,-2.1
2019-01-21T02:55:50.331Z,-2.3
2019-01-21T02:56:59.367Z,-2.2
2019-01-21T02:58:08.468Z,-2.2
2019-01-21T02:59:17.566Z,-2.1
2019-01-21T03:00:26.693Z,-2.2
2019-01-21T03:01:35.759Z,-2.4
2019-01-21T03:02:44.862Z,-2.3
2019-01-21T03:03:53.968Z,-2.4
2019-01-21T03:05:03.080Z,-2.4
2019-01-21T03:06:12.161Z,-2.5
2019-01-21T03:07:21.289Z,-2.5
2019-01-21T03:08:30.443Z,-2.5
2019-01-21T03:09:39.484Z,-2.5
2019-01-21T03:10:48.609Z,-2.4
2019-01-21T03:11:58.969Z,-2.4
2019-01-21T03:13:08.077Z,-2.5
2019-01-21T03:14:17.169Z,-2.4
2019-01-21T03:15:26.323Z,-2.3
2019-01-21T03:16:35.377Z,-2.4
2019-01-21T03:17:44.485Z,-2.5
2019-01-21T03:18:53.574Z,-2.5
2019-01-21T03:20:02.682Z,-2.4
2019-01-21T03:21:11.772Z,-2.4
2019-01-21T03:22:20.899Z,-2.4
2019-01-21T03:23:29.989Z,-2.4
2019-01-21T03:24:39.100Z,-2.6
2019-01-21T03:25:48.162Z,-2.5
2019-01-21T03:26:57.262Z,-2.5
2019-01-21T03:28:06.366Z,-2.5
2019-01-21T03:29:15.490Z,-2.5
2019-01-21T03:30:24.571Z,-2.5
2019-01-21T03:31:33.796Z,-2.5
2019-01-21T03:32:42.792Z,-2.5
2019-01-21T03:33:51.856Z,-2.5
2019-01-21T03:35:01.109Z,-2.5
2019-01-21T03:36:10.039Z,-2.5
2019-01-21T03:37:19.141Z,-2.5
2019-01-21T03:38:28.258Z,-2.5
2019-01-21T03:39:37.344Z,-2.4
2019-01-21T03:40:46.701Z,-2.5
2019-01-21T03:41:55.553Z,-2.5
2019-01-21T03:43:04.665Z,-2.5
2019-01-21T03:44:13.724Z,-2.5
2019-01-21T03:45:22.855Z,-2.5
2019-01-21T03:46:31.913Z,-2.7
2019-01-21T03:47:41.084Z,-2.8
2019-01-21T03:48:50.096Z,-2.7
2019-01-21T03:49:59.201Z,-2.8
2019-01-21T03:51:08.313Z,-2.7
2019-01-21T03:52:17.410Z,-2.6
2019-01-21T03:53:26.478Z,-2.5
2019-01-21T03:54:35.573Z,-2.5
2019-01-21T03:55:44.675Z,-2.6
2019-01-21T03:56:53.753Z,-2.6
2019-01-21T03:58:02.859Z,-2.6
2019-01-21T03:59:11.993Z,-2.6
2019-01-21T04:00:21.221Z,-2.7
2019-01-21T04:01:30.131Z,-2.7
2019-01-21T04:02:39.218Z,-2.7
2019-01-21T04:03:48.401Z,-2.7
2019-01-21T04:04:57.410Z,-2.7
2019-01-21T04:06:06.508Z,-2.6
2019-01-21T04:07:15.593Z,-2.7
2019-01-21T04:08:24.687Z,-2.7
2019-01-21T04:09:33.810Z,-2.9
2019-01-21T04:10:42.870Z,-3.2
2019-01-21T04:11:51.976Z,-3.2
2019-01-21T04:13:01.062Z,-3.1
2019-01-21T04:14:10.234Z,-2.9
2019-01-21T04:15:20.407Z,-2.8
2019-01-21T04:16:28.350Z,-2.9
2019-01-21T04:17:37.425Z,-3.4
2019-01-21T04:18:46.534Z,-3.3
2019-01-21T04:19:55.605Z,-3.4
2019-01-21T04:21:04.721Z,-3.3
2019-01-21T04:22:13.766Z,-3.1
2019-01-21T04:23:22.916Z,-3
2019-01-21T04:24:32.095Z,-3.1
2019-01-21T04:25:41.049Z,-3
2019-01-21T04:26:50.143Z,-3
2019-01-21T04:27:59.196Z,-3.3
2019-01-21T04:29:08.301Z,-3.4
2019-01-21T04:30:17.431Z,-3.4
2019-01-21T04:31:26.548Z,-3.4
2019-01-21T04:32:35.555Z,-3.3
2019-01-21T04:33:44.701Z,-3.4
2019-01-21T04:34:53.765Z,-3.4
2019-01-21T04:36:02.794Z,-3.4
2019-01-21T04:37:11.877Z,-3.5
2019-01-21T04:38:20.955Z,-3.5
2019-01-21T04:39:30.048Z,-3.3
2019-01-21T04:40:39.154Z,-3.1
2019-01-21T04:41:48.211Z,-3.1
2019-01-21T04:42:57.275Z,-3.1
2019-01-21T04:44:06.421Z,-3.1
2019-01-21T04:45:15.518Z,-3.1
2019-01-21T04:46:24.514Z,-3.2
2019-01-21T04:47:33.596Z,-3.1
2019-01-21T04:48:42.668Z,-3.1
2019-01-21T04:49:51.748Z,-3.1
2019-01-21T04:51:00.841Z,-3.2
2019-01-21T04:52:09.901Z,-3.1
2019-01-21T04:53:19.013Z,-3.1
2019-01-21T04:54:28.079Z,-3.2
2019-01-21T04:55:37.138Z,-3.1
2019-01-21T04:56:46.317Z,-3.1
2019-01-21T04:57:55.300Z,-3.1
2019-01-21T04:59:04.489Z,-3.2
2019-01-21T05:00:13.508Z,-3.2
2019-01-21T05:01:22.583Z,-3.2
2019-01-21T05:02:31.621Z,-3.1
2019-01-21T05:03:40.713Z,-3.2
2019-01-21T05:04:49.791Z,-3.2
2019-01-21T05:05:58.900Z,-3.1
2019-01-21T05:07:07.956Z,-3
2019-01-21T05:08:17.032Z,-3
2019-01-21T05:09:26.118Z,-3
2019-01-21T05:10:35.220Z,-3
2019-01-21T05:11:44.268Z,-3
2019-01-21T05:12:53.344Z,-3.1
2019-01-21T05:14:02.495Z,-3.2
2019-01-21T05:15:11.562Z,-3.1
2019-01-21T05:16:20.589Z,-3.1
2019-01-21T05:17:29.690Z,-2.9
2019-01-21T05:18:41.241Z,-3
2019-01-21T05:19:47.903Z,-3.1
2019-01-21T05:20:56.916Z,-3
2019-01-21T05:22:05.997Z,-2.9
2019-01-21T05:23:15.207Z,-2.9
2019-01-21T05:24:24.182Z,-2.9
2019-01-21T05:25:33.239Z,-2.9
2019-01-21T05:26:42.343Z,-2.9
2019-01-21T05:27:51.406Z,-2.9
2019-01-21T05:29:00.501Z,-2.8
2019-01-21T05:30:09.646Z,-2.8
2019-01-21T05:31:18.695Z,-2.8
2019-01-21T05:32:27.741Z,-2.8
2019-01-21T05:33:36.836Z,-2.8
2019-01-21T05:34:45.941Z,-2.8
2019-01-21T05:35:54.994Z,-2.8
2019-01-21T05:37:04.076Z,-2.8
2019-01-21T05:38:13.169Z,-2.7
2019-01-21T05:39:22.261Z,-2.8
2019-01-21T05:40:31.393Z,-2.7
2019-01-21T05:41:40.406Z,-2.8
2019-01-21T05:42:49.479Z,-2.8
2019-01-21T05:43:58.580Z,-2.7
2019-01-21T05:45:07.677Z,-2.7
2019-01-21T05:46:16.862Z,-2.7
2019-01-21T05:47:25.878Z,-2.7
2019-01-21T05:48:34.895Z,-2.7
2019-01-21T05:49:44.003Z,-2.7
2019-01-21T05:50:53.123Z,-2.7
2019-01-21T05:52:02.154Z,-2.7
2019-01-21T05:53:11.243Z,-2.7
2019-01-21T05:54:20.324Z,-2.8
2019-01-21T05:55:29.405Z,-2.8
2019-01-21T05:56:38.493Z,-2.8
2019-01-21T05:57:47.598Z,-3
2019-01-21T05:58:56.703Z,-3.1
2019-01-21T06:00:05.743Z,-3
2019-01-21T06:01:14.838Z,-3
2019-01-21T06:02:24.009Z,-2.9
2019-01-21T06:03:33.000Z,-2.9
2019-01-21T06:04:42.103Z,-2.9
2019-01-21T06:05:51.177Z,-3
2019-01-21T06:07:00.259Z,-2.9
2019-01-21T06:08:09.336Z,-3
2019-01-21T06:09:18.423Z,-3
2019-01-21T06:10:27.523Z,-2.9
2019-01-21T06:11:36.597Z,-2.7
2019-01-21T06:12:45.673Z,-2.7
2019-01-21T06:13:54.758Z,-2.7
2019-01-21T06:15:03.843Z,-2.7
2019-01-21T06:16:12.920Z,-2.7
2019-01-21T06:17:22.111Z,-2.7
2019-01-21T06:18:31.101Z,-2.7
2019-01-21T06:19:40.192Z,-2.7
2019-01-21T06:20:49.270Z,-2.6
2019-01-21T06:21:58.367Z,-2.6
2019-01-21T06:23:07.446Z,-2.7
2019-01-21T06:24:16.539Z,-2.6
2019-01-21T06:25:25.604Z,-2.7
2019-01-21T06:26:34.734Z,-2.6
2019-01-21T06:27:43.778Z,-2.6
2019-01-21T06:28:52.876Z,-2.6
2019-01-21T06:30:01.952Z,-2.6
2019-01-21T06:31:11.034Z,-2.6
2019-01-21T06:32:20.123Z,-2.7
2019-01-21T06:33:29.236Z,-2.6
2019-01-21T06:34:38.319Z,-2.7
2019-01-21T06:35:47.439Z,-2.7
2019-01-21T06:36:56.465Z,-2.7
2019-01-21T06:38:05.541Z,-2.6
2019-01-21T06:39:14.667Z,-2.7
2019-01-21T06:40:23.722Z,-2.6
2019-01-21T06:41:32.815Z,-2.6
2019-01-21T06:42:41.892Z,-2.6
2019-01-21T06:43:50.968Z,-2.6
2019-01-21T06:45:00.091Z,-2.5
2019-01-21T06:46:09.185Z,-2.6
2019-01-21T06:47:18.236Z,-2.5
2019-01-21T06:48:27.313Z,-2.5
2019-01-21T06:49:36.408Z,-2.5
2019-01-21T06:50:45.483Z,-2.5
2019-01-21T06:51:54.568Z,-2.5
2019-01-21T06:53:03.652Z,-2.5
2019-01-21T06:54:12.759Z,-2.4
2019-01-21T06:55:23.273Z,-2.4
2019-01-21T06:56:32.455Z,-2.5
2019-01-21T06:57:41.556Z,-2.5
2019-01-21T06:58:50.535Z,-2.5
2019-01-21T06:59:59.631Z,-2.5
2019-01-21T07:01:08.748Z,-2.4
2019-01-21T07:02:17.807Z,-2.4
2019-01-21T07:03:26.943Z,-2.4
2019-01-21T07:04:35.986Z,-2.4
2019-01-21T07:05:45.067Z,-2.4
2019-01-21T07:06:54.184Z,-2.4
2019-01-21T07:08:03.249Z,-2.4
2019-01-21T07:09:12.355Z,-2.4
2019-01-21T07:10:21.425Z,-2.4
2019-01-21T07:11:30.529Z,-2.4
2019-01-21T07:12:39.675Z,-2.5
2019-01-21T07:13:48.701Z,-2.4
2019-01-21T07:14:57.806Z,-2.5
2019-01-21T07:16:06.898Z,-2.5
2019-01-21T07:17:15.973Z,-2.5
2019-01-21T07:18:26.002Z,-2.4
2019-01-21T07:19:34.140Z,-2.4
2019-01-21T07:20:43.268Z,-2.5
2019-01-21T07:21:52.325Z,-2.4
2019-01-21T07:23:01.453Z,-2.4
2019-01-21T07:24:10.505Z,-2.3
2019-01-21T07:25:19.662Z,-2.3
2019-01-21T07:26:28.822Z,-2.4
2019-01-21T07:27:37.805Z,-2.3
2019-01-21T07:28:46.874Z,-2.4
2019-01-21T07:29:55.955Z,-2.5
2019-01-21T07:31:05.047Z,-2.5
2019-01-21T07:32:14.142Z,-2.5
2019-01-21T07:33:23.288Z,-2.5
2019-01-21T07:34:32.398Z,-2.4
2019-01-21T07:35:41.421Z,-2.3
2019-01-21T07:36:50.513Z,-2.4
2019-01-21T07:37:59.661Z,-2.5
2019-01-21T07:39:08.699Z,-2.6
2019-01-21T07:40:17.783Z,-2.7
2019-01-21T07:41:26.862Z,-2.6
2019-01-21T07:42:35.959Z,-2.7
2019-01-21T07:43:45.057Z,-2.7
2019-01-21T07:44:54.149Z,-2.8
2019-01-21T07:46:03.277Z,-2.7
2019-01-21T07:47:12.336Z,-2.6
2019-01-21T07:48:21.419Z,-2.6
2019-01-21T07:49:30.509Z,-2.6
2019-01-21T07:50:39.605Z,-2.7
2019-01-21T07:51:48.693Z,-2.9
2019-01-21T07:52:58.098Z,-2.8
2019-01-21T07:54:06.881Z,-2.8
2019-01-21T07:55:15.965Z,-2.8
2019-01-21T07:56:25.110Z,-2.7
2019-01-21T07:57:34.147Z,-2.9
2019-01-21T07:58:43.256Z,-2.8
2019-01-21T07:59:52.329Z,-2.8
2019-01-21T08:01:01.506Z,-2.8
2019-01-21T08:02:10.516Z,-3
2019-01-21T08:03:19.625Z,-3.1
2019-01-21T08:04:28.738Z,-3
2019-01-21T08:05:37.866Z,-3
2019-01-21T08:06:46.925Z,-3
2019-01-21T08:07:55.997Z,-2.9
2019-01-21T08:09:05.064Z,-2.9
2019-01-21T08:10:14.168Z,-2.9
2019-01-21T08:11:23.278Z,-3.1
2019-01-21T08:12:32.387Z,-3.1
2019-01-21T08:13:41.547Z,-3.2
2019-01-21T08:14:50.525Z,-3.2
2019-01-21T08:15:59.599Z,-3.1
2019-01-21T08:17:08.679Z,-3
2019-01-21T08:18:17.772Z,-2.8
2019-01-21T08:19:26.870Z,-3
2019-01-21T08:20:35.939Z,-3
2019-01-21T08:21:45.053Z,-3.1
2019-01-21T08:22:54.148Z,-3.1
2019-01-21T08:24:03.214Z,-3.1
2019-01-21T08:25:12.300Z,-3.1
2019-01-21T08:26:21.401Z,-3.1
2019-01-21T08:27:30.478Z,-3.1
2019-01-21T08:28:39.576Z,-3
2019-01-21T08:29:48.689Z,-3
2019-01-21T08:30:57.795Z,-3
2019-01-21T08:32:06.854Z,-3
2019-01-21T08:33:15.920Z,-3
2019-01-21T08:34:25.026Z,-2.9
2019-01-21T08:35:34.154Z,-2.8
2019-01-21T08:36:43.280Z,-2.7
2019-01-21T08:37:52.368Z,-2.6
2019-01-21T08:39:01.501Z,-2.7
2019-01-21T08:40:10.459Z,-2.8
2019-01-21T08:41:19.590Z,-2.8
2019-01-21T08:42:28.651Z,-2.9
2019-01-21T08:43:37.795Z,-2.9
2019-01-21T08:44:46.880Z,-3
2019-01-21T08:45:55.926Z,-2.7
2019-01-21T08:47:05.091Z,-2.7
2019-01-21T08:48:14.121Z,-2.7
2019-01-21T08:49:23.328Z,-2.5
2019-01-21T08:50:32.330Z,-2.4
2019-01-21T08:51:41.575Z,-2.5
2019-01-21T08:52:50.532Z,-2.5
2019-01-21T08:53:59.606Z,-2.5
2019-01-21T08:55:08.711Z,-2.7
2019-01-21T08:56:17.763Z,-2.7
2019-01-21T08:57:26.892Z,-2.8
2019-01-21T08:58:35.994Z,-2.7
2019-01-21T08:59:45.084Z,-2.5
2019-01-21T09:00:54.172Z,-2.7
2019-01-21T09:02:03.264Z,-2.6
2019-01-21T09:03:14.496Z,-3
2019-01-21T09:04:21.472Z,-3.1
2019-01-21T09:05:30.571Z,-2.9
2019-01-21T09:06:39.825Z,-3
2019-01-21T09:07:48.818Z,-2.7
2019-01-21T09:08:57.932Z,-2.8
2019-01-21T09:10:06.960Z,-2.8
2019-01-21T09:11:16.086Z,-2.7
2019-01-21T09:12:25.187Z,-2.9
2019-01-21T09:13:34.330Z,-2.9
2019-01-21T09:14:43.358Z,-2.9
2019-01-21T09:15:52.471Z,-2.7
2019-01-21T09:17:01.573Z,-2.5
2019-01-21T09:18:10.752Z,-2.3
2019-01-21T09:19:19.809Z,-2.3
2019-01-21T09:20:28.855Z,-2.3
2019-01-21T09:21:37.947Z,-2.3
2019-01-21T09:22:47.056Z,-2.2
2019-01-21T09:23:56.160Z,-2.3
2019-01-21T09:25:05.293Z,-2.2
2019-01-21T09:26:14.350Z,-2.4
2019-01-21T09:27:23.460Z,-2.5
2019-01-21T09:28:32.580Z,-2.6
2019-01-21T09:29:41.667Z,-2.4
2019-01-21T09:30:50.835Z,-2.3
2019-01-21T09:31:59.853Z,-2.3
2019-01-21T09:33:08.969Z,-2.1
2019-01-21T09:34:18.091Z,-1.7
2019-01-21T09:35:27.171Z,-1.6
2019-01-21T09:36:36.265Z,-1.7
2019-01-21T09:37:45.387Z,-1.7
2019-01-21T09:38:54.488Z,-1.9
2019-01-21T09:40:03.667Z,-1.9
2019-01-21T09:41:12.704Z,-2.2
2019-01-21T09:42:21.805Z,-2.5
2019-01-21T09:43:30.892Z,-2.8
2019-01-21T09:44:39.997Z,-2.9
2019-01-21T09:45:49.175Z,-2.9
2019-01-21T09:46:58.213Z,-2.8
2019-01-21T09:48:07.319Z,-2.7
2019-01-21T09:49:16.637Z,-2.3
2019-01-21T09:50:25.554Z,-2.5
2019-01-21T09:51:34.656Z,-2.9
2019-01-21T09:52:43.808Z,-2.6
2019-01-21T09:53:52.838Z,-2.2
2019-01-21T09:55:01.952Z,-1.7
2019-01-21T09:56:11.045Z,-1.5
2019-01-21T09:57:20.174Z,-1.7
2019-01-21T09:58:29.255Z,-1.7
2019-01-21T09:59:38.355Z,-1.8
2019-01-21T10:00:47.517Z,-2.2
2019-01-21T10:01:56.569Z,-2.1
2019-01-21T10:03:05.678Z,-1.8
2019-01-21T10:04:14.913Z,-1.6
2019-01-21T10:05:23.897Z,-2.1
2019-01-21T10:06:33.025Z,-2.1
2019-01-21T10:07:42.220Z,-2.2
2019-01-21T10:08:51.216Z,-2.2
2019-01-21T10:10:00.378Z,-2.7
2019-01-21T10:11:09.483Z,-2.2
2019-01-21T10:12:18.580Z,-2.3
2019-01-21T10:13:27.731Z,-2.6
2019-01-21T10:14:36.827Z,-1.9
2019-01-21T10:15:46.022Z,-1.8
2019-01-21T10:16:55.006Z,-2
2019-01-21T10:18:04.152Z,-2.3
2019-01-21T10:19:13.256Z,-1.7
2019-01-21T10:20:22.389Z,-1.6
2019-01-21T10:21:31.476Z,-1.2
2019-01-21T10:22:40.699Z,-1.5
2019-01-21T10:23:49.716Z,-1.6
2019-01-21T10:24:58.819Z,-1.6
2019-01-21T10:26:07.942Z,-1.8
2019-01-21T10:27:17.057Z,-1.9
2019-01-21T10:28:26.173Z,-2
2019-01-21T10:29:35.447Z,-1.8
2019-01-21T10:30:44.416Z,-2
2019-01-21T10:31:59.196Z,-2.1
2019-01-21T10:33:02.777Z,-2.2
2019-01-21T10:34:11.904Z,-1.8
2019-01-21T10:35:21.022Z,-2.2
2019-01-21T10:36:30.032Z,-2.5
2019-01-21T10:37:39.149Z,-2.2
2019-01-21T10:38:48.285Z,-2
2019-01-21T10:39:57.398Z,-2.2
2019-01-21T10:41:06.546Z,-1.9
2019-01-21T10:42:15.636Z,-1.5
2019-01-21T10:43:24.772Z,-1.6
2019-01-21T10:44:33.967Z,-1.4
2019-01-21T10:45:43.002Z,-1.2
2019-01-21T10:46:52.126Z,-1.8
2019-01-21T10:48:01.374Z,-1.7
2019-01-21T10:49:10.445Z,-2.2
2019-01-21T10:50:19.505Z,-2.1
2019-01-21T10:51:28.640Z,-2
2019-01-21T10:52:37.768Z,-1.8
2019-01-21T10:53:47.009Z,-1.8
2019-01-21T10:54:56.043Z,-2.2
2019-01-21T10:56:05.214Z,-2.4
2019-01-21T10:57:14.296Z,-2.2
2019-01-21T10:58:23.409Z,-1.8
2019-01-21T10:59:32.677Z,-1.5
2019-01-21T11:00:41.796Z,-1.7
2019-01-21T11:01:50.790Z,-2.1
2019-01-21T11:03:00.049Z,-2.1
2019-01-21T11:04:09.032Z,-1.7
2019-01-21T11:05:18.159Z,-1.6
2019-01-21T11:06:27.297Z,-1.4
2019-01-21T11:07:36.440Z,-1.9
2019-01-21T11:08:45.537Z,-1.6
2019-01-21T11:09:54.669Z,-1.2
2019-01-21T11:11:03.788Z,-1.3
2019-01-21T11:12:12.932Z,-1.7
2019-01-21T11:13:22.047Z,-2
2019-01-21T11:14:31.235Z,-1.7
2019-01-21T11:15:40.354Z,-2
2019-01-21T11:16:49.529Z,-1.9
2019-01-21T11:17:58.593Z,-1.6
2019-01-21T11:19:07.666Z,-1.7
2019-01-21T11:20:16.825Z,-1.8
2019-01-21T11:21:25.923Z,-2.1
2019-01-21T11:22:35.059Z,-2.2
2019-01-21T11:23:44.257Z,-2.3
2019-01-21T11:24:53.304Z,-2.2
2019-01-21T11:26:02.472Z,-2.2
2019-01-21T11:27:11.565Z,-2.5
2019-01-21T11:28:20.731Z,-2.6
2019-01-21T11:29:29.802Z,-2.4
2019-01-21T11:30:38.952Z,-2.4
2019-01-21T11:31:48.066Z,-2.4
2019-01-21T11:32:57.361Z,-2.4
2019-01-21T11:34:06.310Z,-2
2019-01-21T11:35:15.556Z,-1.7
2019-01-21T11:36:24.551Z,-1.6
2019-01-21T11:37:33.682Z,-1.7
2019-01-21T11:38:42.986Z,-1.7
2019-01-21T11:39:51.964Z,-1.8
2019-01-21T11:41:01.074Z,-1.7
2019-01-21T11:42:10.240Z,-1.6
2019-01-21T11:43:19.339Z,-1.4
2019-01-21T11:44:28.485Z,-1.4
2019-01-21T11:45:37.585Z,-1.3
2019-01-21T11:46:46.715Z,-1.7
2019-01-21T11:47:55.885Z,-1.8
2019-01-21T11:49:04.991Z,-1.8
2019-01-21T11:50:14.122Z,-1
2019-01-21T11:51:23.272Z,-1.2
2019-01-21T11:52:32.443Z,-1.5
2019-01-21T11:53:41.561Z,-1.7
2019-01-21T11:54:50.689Z,-1.5
2019-01-21T11:55:59.806Z,-1.5
2019-01-21T11:57:08.969Z,-1.7
2019-01-21T11:58:18.062Z,-1.5
2019-01-21T11:59:27.195Z,-1.1
2019-01-21T12:00:36.361Z,-1.4
2019-01-21T12:01:45.536Z,-1.2
2019-01-21T12:02:54.596Z,-1.5
2019-01-21T12:04:03.737Z,-1.7
2019-01-21T12:05:12.896Z,-1.2
2019-01-21T12:06:21.986Z,-1
2019-01-21T12:07:31.235Z,-1.1
2019-01-21T12:08:40.318Z,-1
2019-01-21T12:09:49.367Z,-1.4
2019-01-21T12:10:58.521Z,-1
2019-01-21T12:12:07.636Z,-0.9
2019-01-21T12:13:16.767Z,-1.1
2019-01-21T12:14:25.898Z,-1.2
2019-01-21T12:15:35.059Z,-1.4
2019-01-21T12:16:44.166Z,-1.4
2019-01-21T12:17:53.292Z,-0.6
2019-01-21T12:19:02.507Z,-1.1
2019-01-21T12:20:16.968Z,-1.1
2019-01-21T12:21:20.722Z,-1
2019-01-21T12:22:29.844Z,-1
2019-01-21T12:23:38.977Z,-1
2019-01-21T12:24:48.122Z,-1.3
2019-01-21T12:25:57.280Z,-1.4
2019-01-21T12:27:06.442Z,-1
2019-01-21T12:28:15.550Z,-0.5
2019-01-21T12:29:24.679Z,-0.6
2019-01-21T12:30:33.849Z,-0.2
2019-01-21T12:31:42.947Z,-0.4
2019-01-21T12:32:52.107Z,-0.2
2019-01-21T12:34:01.296Z,0.3
2019-01-21T12:35:10.376Z,0.2
2019-01-21T12:36:19.546Z,-0.4
2019-01-21T12:37:28.668Z,-0.7
2019-01-21T12:38:37.807Z,-0.6
2019-01-21T12:39:46.945Z,-0.1
2019-01-21T12:40:56.109Z,0.1
2019-01-21T12:42:05.244Z,0.5
2019-01-21T12:43:14.413Z,-0.2
2019-01-21T12:44:23.539Z,-0.1
2019-01-21T12:45:32.760Z,-0.3
2019-01-21T12:46:41.843Z,-0.9
2019-01-21T12:47:51.002Z,-0.8
2019-01-21T12:49:00.149Z,-0.2
2019-01-21T12:50:09.468Z,-0.3
2019-01-21T12:51:18.541Z,-0.5
2019-01-21T12:52:27.598Z,-0.9
2019-01-21T12:53:36.748Z,-0.8
2019-01-21T12:54:46.010Z,-0.5
2019-01-21T12:57:04.224Z,0.2
2019-01-21T12:58:13.367Z,-0.2
2019-01-21T12:59:22.697Z,-0.6
2019-01-21T13:00:31.751Z,-0.6
2019-01-21T13:01:40.793Z,-0.9
2019-01-21T13:02:49.958Z,-0.3
2019-01-21T13:03:59.091Z,-1
2019-01-21T13:05:08.232Z,-1.1
2019-01-21T13:06:17.407Z,-0.9
2019-01-21T13:07:26.534Z,-0.9
2019-01-21T13:08:35.670Z,-0.8
2019-01-21T13:09:44.814Z,-1.1
2019-01-21T13:10:54.521Z,-1
2019-01-21T13:12:03.184Z,-0.6
2019-01-21T13:13:12.254Z,-0.4
2019-01-21T13:14:21.384Z,-0.7
2019-01-21T13:15:30.617Z,-1
2019-01-21T13:16:39.662Z,-1.2
2019-01-21T13:17:48.811Z,-0.8
2019-01-21T13:18:57.984Z,-0.1
2019-01-21T13:20:07.093Z,-0.1
2019-01-21T13:21:16.322Z,-0.3
2019-01-21T13:22:25.408Z,-0.8
2019-01-21T13:23:34.514Z,-1.2
2019-01-21T13:24:43.711Z,-0.9
2019-01-21T13:25:52.835Z,-0.8
2019-01-21T13:27:01.938Z,-0.9
2019-01-21T13:28:11.141Z,-1.1
2019-01-21T13:29:20.239Z,-1.1
2019-01-21T13:35:06.787Z,-0.6
2019-01-21T13:36:15.070Z,-0.3
2019-01-21T13:37:24.191Z,-0.1
2019-01-21T13:38:33.322Z,0.3
2019-01-21T13:39:42.479Z,0.3
2019-01-21T13:42:00.765Z,-0.2
2019-01-21T13:44:19.048Z,-0.4
2019-01-21T13:45:28.205Z,0.1
2019-01-21T13:47:46.455Z,0.2
2019-01-21T13:48:55.615Z,-0.4
2019-01-21T13:50:04.747Z,-0.5
2019-01-21T13:51:13.897Z,-0.6
2019-01-21T13:52:23.115Z,-0.7
2019-01-21T13:53:32.232Z,-0.1
2019-01-21T13:54:41.328Z,-0.5
2019-01-21T13:55:50.486Z,-0.2
2019-01-21T13:56:59.625Z,-0.4
2019-01-21T13:58:08.759Z,-0.1
2019-01-21T13:59:17.958Z,-0.2
2019-01-21T14:01:36.195Z,-0.5
2019-01-21T14:02:45.349Z,-0.6
2019-01-21T14:03:54.487Z,-0.2
2019-01-21T14:06:12.773Z,-0.4
2019-01-21T14:07:21.925Z,-0.5
2019-01-21T14:08:31.138Z,-0.4
2019-01-21T14:09:40.235Z,-0.5
2019-01-21T14:10:49.402Z,-0.1
2019-01-21T14:11:58.500Z,0.1
2019-01-21T14:13:07.651Z,-0.4
2019-01-21T14:14:16.807Z,-0.7
2019-01-21T14:15:25.952Z,-0.8
2019-01-21T14:16:35.086Z,-0.7
2019-01-21T14:17:44.245Z,-0.5
2019-01-21T14:18:53.428Z,-0.3
2019-01-21T14:20:02.590Z,-0.5
2019-01-21T14:21:11.685Z,-0.3
2019-01-21T14:22:20.830Z,-0.5
2019-01-21T14:23:29.975Z,-0.5
2019-01-21T14:24:39.113Z,-0.7
2019-01-21T14:25:48.264Z,-0.7
2019-01-21T14:26:57.534Z,-0.5
2019-01-21T14:28:06.579Z,-0.7
2019-01-21T14:29:15.702Z,-1
2019-01-21T14:30:24.878Z,-1
2019-01-21T14:31:34.880Z,-0.8
2019-01-21T14:32:43.147Z,-0.9
2019-01-21T14:33:52.300Z,-0.9
2019-01-21T14:35:01.568Z,-0.8
2019-01-21T14:36:10.578Z,-0.9
2019-01-21T14:37:19.715Z,-0.6
2019-01-21T14:38:28.977Z,-0.9
2019-01-21T14:39:37.996Z,-0.8
2019-01-21T14:40:47.138Z,-1.2
2019-01-21T14:41:56.780Z,-1.1
2019-01-21T14:43:08.479Z,-1.2
2019-01-21T14:44:14.674Z,-1
2019-01-21T14:45:23.704Z,-0.9
2019-01-21T14:46:32.838Z,-1
2019-01-21T14:47:41.966Z,-1.1
2019-01-21T14:48:51.102Z,-0.9
2019-01-21T14:50:00.240Z,-1.1
2019-01-21T14:51:09.364Z,-1.2
2019-01-21T14:52:18.495Z,-1.4
2019-01-21T14:53:27.649Z,-1.3
2019-01-21T14:54:36.763Z,-0.9
2019-01-21T14:55:45.889Z,-1.1
2019-01-21T14:56:55.057Z,-0.9
2019-01-21T14:58:04.249Z,-1.2
2019-01-21T14:59:13.351Z,-1.4
2019-01-21T15:00:22.461Z,-1.1
2019-01-21T15:01:31.544Z,-1.3
2019-01-21T15:02:40.746Z,-1.5
2019-01-21T15:03:49.800Z,-1.4
2019-01-21T15:04:58.922Z,-1.3
2019-01-21T15:06:08.104Z,-1.1
2019-01-21T15:07:17.213Z,-1.3
2019-01-21T15:08:26.314Z,-1.3
2019-01-21T15:09:35.497Z,-1.4
2019-01-21T15:10:44.580Z,-1.4
2019-01-21T15:11:53.651Z,-1.3
2019-01-21T15:13:02.776Z,-1.4
2019-01-21T15:14:11.893Z,-1.2
2019-01-21T15:15:21.050Z,-1.4
2019-01-21T15:16:30.234Z,-1.4
2019-01-21T15:17:39.253Z,-1.4
2019-01-21T15:18:48.445Z,-1.4
2019-01-21T15:19:58.740Z,-1.4
2019-01-21T15:21:07.893Z,-1.4
2019-01-21T15:22:17.069Z,-1.4
2019-01-21T15:23:26.134Z,-1.4
2019-01-21T15:24:35.255Z,-1.5
2019-01-21T15:25:44.328Z,-1.5
2019-01-21T15:26:53.436Z,-1.3
2019-01-21T15:28:02.657Z,-1.4
2019-01-21T15:29:11.750Z,-1.3
2019-01-21T15:30:20.870Z,-1.3
2019-01-21T15:31:30.038Z,-1.4
2019-01-21T15:32:39.097Z,-1.4
2019-01-21T15:33:48.123Z,-1.5
2019-01-21T15:34:57.252Z,-1.5
2019-01-21T15:36:06.353Z,-1.3
2019-01-21T15:37:15.514Z,-1.3